createdAt,value
2023-04-20T00:01:22.293Z,103204.88
2023-04-20T00:03:49.128Z,103201.34
2023-04-20T00:06:15.912Z,103199.59
2023-04-20T00:08:44.130Z,103198.81
2023-04-20T00:11:10.868Z,103204.28
2023-04-20T00:13:37.532Z,103199.97
2023-04-20T00:16:04.479Z,103200.69
2023-04-20T00:18:31.133Z,103195.22
2023-04-20T00:20:57.843Z,103202.13
2023-04-20T00:23:24.534Z,103201.19
2023-04-20T00:25:52.250Z,103200.34
2023-04-20T00:28:18.942Z,103196.06
2023-04-20T00:30:45.760Z,103189.88
2023-04-20T00:33:12.398Z,103187.94
2023-04-20T00:35:39.066Z,103192.13
2023-04-20T00:38:06.045Z,103185.09
2023-04-20T00:40:33.546Z,103183.22
2023-04-20T00:43:12.937Z,103185.88
2023-04-20T00:45:39.829Z,103188.59
2023-04-20T00:48:07.323Z,103185.09
2023-04-20T00:50:35.174Z,103188.56
2023-04-20T00:53:03.518Z,103185.94
2023-04-20T00:55:31.318Z,103187.72
2023-04-20T00:57:58.995Z,103179.88
2023-04-20T01:00:27.523Z,103172.00
2023-04-20T01:02:54.470Z,103179.03
2023-04-20T01:05:22.216Z,103175.50
2023-04-20T01:07:49.697Z,103180.69
2023-04-20T01:10:16.522Z,103175.25
2023-04-20T01:12:43.253Z,103174.69
2023-04-20T01:15:10.170Z,103177.78
2023-04-20T01:17:40.488Z,103168.91
2023-04-20T01:20:15.004Z,103172.66
2023-04-20T01:22:49.774Z,103172.75
2023-04-20T01:25:17.958Z,103168.22
2023-04-20T01:27:45.184Z,103168.81
2023-04-20T01:30:13.105Z,103172.16
2023-04-20T01:32:40.655Z,103167.88
2023-04-20T01:35:09.247Z,103166.28
2023-04-20T01:37:36.474Z,103164.59
2023-04-20T01:40:04.003Z,103159.13
2023-04-20T01:42:30.981Z,103160.69
2023-04-20T01:44:57.797Z,103163.38
2023-04-20T01:47:24.591Z,103153.81
2023-04-20T01:49:51.293Z,103165.91
2023-04-20T01:52:17.990Z,103167.22
2023-04-20T01:54:44.975Z,103159.06
2023-04-20T01:57:12.166Z,103164.13
2023-04-20T01:59:38.911Z,103166.56
2023-04-20T02:02:05.661Z,103165.72
2023-04-20T02:04:32.504Z,103159.59
2023-04-20T02:06:59.400Z,103156.06
2023-04-20T02:09:26.139Z,103163.09
2023-04-20T02:11:52.824Z,103154.50
2023-04-20T02:14:19.551Z,103145.88
2023-04-20T02:16:46.900Z,103150.31
2023-04-20T02:19:13.554Z,103150.38
2023-04-20T02:21:40.254Z,103146.84
2023-04-20T02:24:07.358Z,103145.06
2023-04-20T02:26:34.031Z,103147.75
2023-04-20T02:29:00.708Z,103145.19
2023-04-20T02:31:27.608Z,103142.44
2023-04-20T02:33:54.296Z,103139.63
2023-04-20T02:36:21.151Z,103140.50
2023-04-20T02:38:47.809Z,103137.84
2023-04-20T02:41:14.475Z,103145.75
2023-04-20T02:43:41.441Z,103142.16
2023-04-20T02:46:08.318Z,103140.41
2023-04-20T02:48:35.004Z,103143.00
2023-04-20T02:51:01.944Z,103138.50
2023-04-20T02:53:28.894Z,103139.31
2023-04-20T02:55:55.696Z,103138.25
2023-04-20T02:58:22.382Z,103132.75
2023-04-20T03:00:49.034Z,103136.22
2023-04-20T03:03:15.783Z,103140.53
2023-04-20T03:05:42.502Z,103132.66
2023-04-20T03:08:09.294Z,103130.88
2023-04-20T03:10:36.053Z,103134.44
2023-04-20T03:13:02.713Z,103127.41
2023-04-20T03:15:29.374Z,103127.09
2023-04-20T03:17:56.080Z,103128.47
2023-04-20T03:20:22.951Z,103135.03
2023-04-20T03:22:49.640Z,103132.13
2023-04-20T03:25:16.481Z,103129.53
2023-04-20T03:27:45.988Z,103124.44
2023-04-20T03:30:13.728Z,103123.97
2023-04-20T03:32:40.998Z,103125.13
2023-04-20T03:35:09.056Z,103126.97
2023-04-20T03:37:38.690Z,103120.03
2023-04-20T03:40:07.328Z,103128.88
2023-04-20T03:42:34.112Z,103124.53
2023-04-20T03:45:01.156Z,103131.66
2023-04-20T03:47:27.891Z,103130.00
2023-04-20T03:49:54.573Z,103121.28
2023-04-20T03:52:21.576Z,103133.78
2023-04-20T03:54:48.269Z,103133.84
2023-04-20T03:57:14.963Z,103128.47
2023-04-20T03:59:41.647Z,103117.75
2023-04-20T04:02:11.075Z,103121.91
2023-04-20T04:04:38.155Z,103128.63
2023-04-20T04:07:05.413Z,103124.88
2023-04-20T04:09:32.063Z,103124.94
2023-04-20T04:11:58.723Z,103131.19
2023-04-20T04:14:25.472Z,103129.63
2023-04-20T04:16:52.204Z,103129.69
2023-04-20T04:19:19.095Z,103128.78
2023-04-20T04:21:46.021Z,103132.34
2023-04-20T04:24:12.889Z,103136.72
2023-04-20T04:26:39.629Z,103128.88
2023-04-20T04:29:06.672Z,103129.84
2023-04-20T04:31:34.043Z,103130.00
2023-04-20T04:34:01.193Z,103131.88
2023-04-20T04:36:27.869Z,103130.28
2023-04-20T04:38:54.521Z,103129.53
2023-04-20T04:41:21.572Z,103141.06
2023-04-20T04:43:48.263Z,103140.22
2023-04-20T04:46:14.942Z,103131.56
2023-04-20T04:48:42.408Z,103127.25
2023-04-20T04:51:09.889Z,103131.72
2023-04-20T04:53:36.923Z,103131.75
2023-04-20T04:56:04.579Z,103137.97
2023-04-20T04:58:31.505Z,103141.56
2023-04-20T05:00:58.205Z,103140.75
2023-04-20T05:03:25.075Z,103137.28
2023-04-20T05:05:51.812Z,103148.06
2023-04-20T05:08:18.481Z,103140.28
2023-04-20T05:10:45.154Z,103142.19
2023-04-20T05:13:11.949Z,103135.25
2023-04-20T05:15:38.670Z,103136.31
2023-04-20T05:18:05.504Z,103129.44
2023-04-20T05:20:32.360Z,103133.94
2023-04-20T05:22:59.110Z,103139.34
2023-04-20T05:25:29.876Z,103129.88
2023-04-20T05:27:56.589Z,103126.53
2023-04-20T05:30:23.589Z,103129.25
2023-04-20T05:32:52.175Z,103129.41
2023-04-20T05:35:19.367Z,103134.81
2023-04-20T05:37:47.664Z,103139.28
2023-04-20T05:40:15.495Z,103130.66
2023-04-20T05:42:42.190Z,103130.81
2023-04-20T05:45:09.850Z,103130.16
2023-04-20T05:47:36.587Z,103125.00
2023-04-20T05:50:03.794Z,103116.34
2023-04-20T05:52:30.888Z,103118.25
2023-04-20T05:54:57.546Z,103121.91
2023-04-20T05:57:24.684Z,103128.19
2023-04-20T05:59:51.931Z,103121.31
2023-04-20T06:02:18.648Z,103122.34
2023-04-20T06:04:45.711Z,103127.81
2023-04-20T06:07:12.740Z,103112.16
2023-04-20T06:09:39.394Z,103115.84
2023-04-20T06:12:06.229Z,103116.84
2023-04-20T06:14:32.949Z,103113.47
2023-04-20T06:17:00.045Z,103105.69
2023-04-20T06:19:26.910Z,103114.66
2023-04-20T06:21:53.629Z,103120.06
2023-04-20T06:24:20.376Z,103114.94
2023-04-20T06:26:47.098Z,103116.00
2023-04-20T06:29:13.785Z,103115.28
2023-04-20T06:31:40.631Z,103114.50
2023-04-20T06:34:07.459Z,103117.31
2023-04-20T06:36:34.197Z,103113.09
2023-04-20T06:39:01.310Z,103110.56
2023-04-20T06:41:28.034Z,103113.34
2023-04-20T06:43:54.682Z,103107.31
2023-04-20T06:46:21.454Z,103113.59
2023-04-20T06:48:48.159Z,103118.13
2023-04-20T06:51:15.131Z,103120.00
2023-04-20T06:53:41.827Z,103116.66
2023-04-20T06:56:08.649Z,103115.94
2023-04-20T06:58:35.506Z,103116.97
2023-04-20T07:01:02.538Z,103111.81
2023-04-20T07:03:29.524Z,103119.03
2023-04-20T07:05:56.348Z,103109.47
2023-04-20T07:08:23.074Z,103112.22
2023-04-20T07:10:49.768Z,103119.38
2023-04-20T07:13:16.824Z,103112.44
2023-04-20T07:15:45.504Z,103116.94
2023-04-20T07:18:12.757Z,103109.09
2023-04-20T07:20:39.627Z,103113.59
2023-04-20T07:23:06.761Z,103120.69
2023-04-20T07:25:33.540Z,103117.19
2023-04-20T07:28:00.354Z,103115.50
2023-04-20T07:30:27.293Z,103118.19
2023-04-20T07:32:54.072Z,103106.75
2023-04-20T07:35:20.975Z,103113.84
2023-04-20T07:37:47.694Z,103108.56
2023-04-20T07:40:14.719Z,103108.59
2023-04-20T07:42:41.419Z,103104.22
2023-04-20T07:45:09.565Z,103099.78
2023-04-20T07:47:37.405Z,103102.44
2023-04-20T07:50:07.869Z,103103.34
2023-04-20T07:52:34.679Z,103104.22
2023-04-20T07:55:01.616Z,103105.09
2023-04-20T07:57:29.122Z,103106.84
2023-04-20T07:59:55.961Z,103097.97
2023-04-20T08:02:22.778Z,103100.63
2023-04-20T08:04:50.336Z,103100.56
2023-04-20T08:07:17.800Z,103097.91
2023-04-20T08:09:44.598Z,103098.72
2023-04-20T08:12:11.434Z,103096.00
2023-04-20T08:14:38.392Z,103097.72
2023-04-20T08:17:05.291Z,103094.94
2023-04-20T08:19:32.238Z,103087.66
2023-04-20T08:22:00.176Z,103089.13
2023-04-20T08:24:28.299Z,103080.75
2023-04-20T08:26:54.951Z,103092.88
2023-04-20T08:29:21.908Z,103092.53
2023-04-20T08:31:50.709Z,103084.97
2023-04-20T08:34:18.342Z,103085.69
2023-04-20T08:36:45.382Z,103083.53
2023-04-20T08:39:14.347Z,103084.28
2023-04-20T08:41:41.412Z,103083.72
2023-04-20T08:44:08.434Z,103074.00
2023-04-20T08:46:36.190Z,103080.38
2023-04-20T08:49:04.161Z,103080.53
2023-04-20T08:51:33.961Z,103071.81
2023-04-20T08:54:05.999Z,103074.59
2023-04-20T08:56:37.857Z,103069.28
2023-04-20T08:59:10.632Z,103078.00
2023-04-20T09:01:39.593Z,103073.38
2023-04-20T09:04:23.899Z,103066.06
2023-04-20T09:06:52.952Z,103060.41
2023-04-20T09:09:21.652Z,103072.06
2023-04-20T09:11:59.427Z,103064.84
2023-04-20T09:14:26.146Z,103065.72
2023-04-20T09:16:57.696Z,103064.69
2023-04-20T09:19:25.701Z,103054.69
2023-04-20T09:21:54.755Z,103054.34
2023-04-20T09:24:23.150Z,103054.69
2023-04-20T09:26:49.935Z,103057.66
2023-04-20T09:29:21.603Z,103052.78
2023-04-20T09:31:49.695Z,103053.38
2023-04-20T09:34:16.899Z,103046.81
2023-04-20T09:36:52.132Z,103046.72
2023-04-20T09:39:20.679Z,103038.44
2023-04-20T09:41:48.263Z,103038.06
2023-04-20T09:44:17.054Z,103036.94
2023-04-20T09:46:44.897Z,103039.25
2023-04-20T09:49:14.105Z,103030.16
2023-04-20T09:51:45.281Z,103032.91
2023-04-20T09:54:12.983Z,103030.06
2023-04-20T09:56:40.719Z,103031.00
2023-04-20T09:59:08.019Z,103023.13
2023-04-20T10:01:37.559Z,103020.25
2023-04-20T10:04:09.391Z,103018.25
2023-04-20T10:06:37.326Z,103016.31
2023-04-20T10:09:06.688Z,103018.91
2023-04-20T10:11:51.703Z,103019.66
2023-04-20T10:14:25.053Z,103008.66
2023-04-20T10:17:03.392Z,103002.97
2023-04-20T10:19:43.660Z,103007.44
2023-04-20T10:22:13.033Z,103007.56
2023-04-20T10:24:40.371Z,102998.63
2023-04-20T10:27:27.322Z,103004.75
2023-04-20T10:29:54.337Z,102992.09
2023-04-20T10:32:29.319Z,102992.16
2023-04-20T10:35:07.741Z,102993.84
2023-04-20T10:37:35.351Z,102981.91
2023-04-20T10:40:07.430Z,102988.38
2023-04-20T10:42:45.261Z,102989.16
2023-04-20T10:45:12.912Z,102977.69
2023-04-20T10:47:41.038Z,102981.63
2023-04-20T10:50:15.165Z,102974.25
2023-04-20T10:52:43.607Z,102978.25
2023-04-20T10:55:20.537Z,102964.47
2023-04-20T10:57:47.732Z,102970.47
2023-04-20T11:00:16.595Z,102963.28
2023-04-20T11:03:01.343Z,102958.63
2023-04-20T11:05:28.136Z,102955.47
2023-04-20T11:07:55.551Z,102944.84
2023-04-20T11:10:25.949Z,102949.72
2023-04-20T11:12:53.300Z,102940.72
2023-04-20T11:15:20.132Z,102941.69
2023-04-20T11:17:47.075Z,102949.28
2023-04-20T11:20:17.707Z,102939.00
2023-04-20T11:22:44.885Z,102942.22
2023-04-20T11:25:12.694Z,102934.22
2023-04-20T11:27:40.966Z,102935.06
2023-04-20T11:30:10.059Z,102932.94
2023-04-20T11:32:38.320Z,102933.28
2023-04-20T11:35:08.193Z,102927.78
2023-04-20T11:37:47.216Z,102922.28
2023-04-20T11:40:15.206Z,102925.50
2023-04-20T11:42:42.020Z,102929.81
2023-04-20T11:45:09.194Z,102931.19
2023-04-20T11:47:35.925Z,102924.03
2023-04-20T11:50:02.837Z,102921.66
2023-04-20T11:52:29.480Z,102916.59
2023-04-20T11:54:56.486Z,102914.03
2023-04-20T11:57:24.249Z,102911.59
2023-04-20T11:59:51.252Z,102906.94
2023-04-20T12:02:17.987Z,102899.63
2023-04-20T12:04:44.828Z,102896.81
2023-04-20T12:07:11.678Z,102900.59
2023-04-20T12:09:38.621Z,102894.38
2023-04-20T12:12:06.216Z,102889.78
2023-04-20T12:14:33.866Z,102887.78
2023-04-20T12:17:01.758Z,102887.72
2023-04-20T12:19:28.406Z,102881.47
2023-04-20T12:21:55.504Z,102882.31
2023-04-20T12:24:22.703Z,102881.41
2023-04-20T12:26:49.481Z,102880.28
2023-04-20T12:29:16.783Z,102872.84
2023-04-20T12:31:43.714Z,102877.84
2023-04-20T12:34:10.769Z,102877.28
2023-04-20T12:36:37.488Z,102868.81
2023-04-20T12:39:04.559Z,102857.63
2023-04-20T12:41:31.439Z,102854.66
2023-04-20T12:43:58.181Z,102862.63
2023-04-20T12:46:25.559Z,102854.97
2023-04-20T12:48:52.451Z,102847.19
2023-04-20T12:51:19.138Z,102854.06
2023-04-20T12:53:45.793Z,102852.13
2023-04-20T12:56:12.439Z,102852.94
2023-04-20T12:58:39.103Z,102858.44
2023-04-20T13:01:06.080Z,102848.41
2023-04-20T13:03:33.334Z,102842.94
2023-04-20T13:06:01.442Z,102839.50
2023-04-20T13:08:29.020Z,102838.66
2023-04-20T13:11:00.671Z,102838.50
2023-04-20T13:13:27.911Z,102829.84
2023-04-20T13:15:56.153Z,102829.16
2023-04-20T13:18:24.661Z,102830.75
2023-04-20T13:20:52.152Z,102828.03
2023-04-20T13:23:19.546Z,102825.59
2023-04-20T13:25:47.134Z,102817.44
2023-04-20T13:28:19.232Z,102819.19
2023-04-20T13:30:55.720Z,102812.84
2023-04-20T13:33:23.211Z,102808.56
2023-04-20T13:35:51.229Z,102809.13
2023-04-20T13:38:18.758Z,102804.53
2023-04-20T13:40:47.010Z,102796.28
2023-04-20T13:43:14.391Z,102797.94
2023-04-20T13:45:43.215Z,102788.53
2023-04-20T13:48:10.468Z,102797.19
2023-04-20T13:50:37.410Z,102787.09
2023-04-20T13:53:04.769Z,102785.28
2023-04-20T13:55:32.462Z,102789.66
2023-04-20T13:57:59.549Z,102784.47
2023-04-20T14:00:26.563Z,102776.06
2023-04-20T14:02:55.407Z,102783.56
2023-04-20T14:05:22.911Z,102783.19
2023-04-20T14:07:49.766Z,102785.66
2023-04-20T14:10:19.728Z,102770.63
2023-04-20T14:12:46.815Z,102778.31
2023-04-20T14:15:14.144Z,102776.25
2023-04-20T14:17:40.834Z,102774.19
2023-04-20T14:20:08.527Z,102768.13
2023-04-20T14:22:36.765Z,102770.78
2023-04-20T14:25:05.134Z,102765.53
2023-04-20T14:27:31.820Z,102768.91
2023-04-20T14:29:58.907Z,102764.53
2023-04-20T14:32:25.748Z,102759.47
2023-04-20T14:34:52.424Z,102754.88
2023-04-20T14:37:19.254Z,102749.47
2023-04-20T14:39:46.012Z,102750.22
2023-04-20T14:42:13.462Z,102741.66
2023-04-20T14:44:40.091Z,102734.50
2023-04-20T14:47:06.884Z,102730.03
2023-04-20T14:49:33.500Z,102739.94
2023-04-20T14:52:00.138Z,102736.50
2023-04-20T14:54:26.803Z,102737.47
2023-04-20T14:56:53.466Z,102733.97
2023-04-20T14:59:20.383Z,102738.84
2023-04-20T15:01:59.223Z,102725.63
2023-04-20T15:04:28.934Z,102725.38
2023-04-20T15:06:55.893Z,102725.97
2023-04-20T15:09:22.533Z,102723.88
2023-04-20T15:11:49.277Z,102719.50
2023-04-20T15:14:16.089Z,102717.38
2023-04-20T15:16:43.082Z,102709.97
2023-04-20T15:19:09.725Z,102721.59
2023-04-20T15:21:36.439Z,102718.44
2023-04-20T15:24:03.441Z,102716.59
2023-04-20T15:26:30.168Z,102707.16
2023-04-20T15:28:57.694Z,102702.72
2023-04-20T15:31:24.403Z,102712.78
2023-04-20T15:33:51.181Z,102706.66
2023-04-20T15:36:19.401Z,102701.75
2023-04-20T15:38:46.376Z,102696.91
2023-04-20T15:41:13.089Z,102700.06
2023-04-20T15:43:39.999Z,102701.53
2023-04-20T15:46:06.704Z,102699.09
2023-04-20T15:48:33.508Z,102693.63
2023-04-20T15:51:00.353Z,102695.16
2023-04-20T15:53:27.613Z,102684.59
2023-04-20T15:55:54.307Z,102692.81
2023-04-20T15:58:21.423Z,102685.03
2023-04-20T16:00:48.386Z,102690.88
2023-04-20T16:03:15.399Z,102682.38
2023-04-20T16:05:42.223Z,102674.13
2023-04-20T16:08:09.290Z,102679.69
2023-04-20T16:10:36.138Z,102672.88
2023-04-20T16:13:03.880Z,102665.13
2023-04-20T16:15:31.458Z,102663.56
2023-04-20T16:18:00.153Z,102662.50
2023-04-20T16:20:26.958Z,102657.81
2023-04-20T16:22:53.661Z,102647.84
2023-04-20T16:25:23.165Z,102655.13
2023-04-20T16:27:51.608Z,102650.38
2023-04-20T16:30:18.888Z,102653.09
2023-04-20T16:32:45.869Z,102658.06
2023-04-20T16:35:12.654Z,102651.13
2023-04-20T16:37:39.362Z,102647.53
2023-04-20T16:40:06.968Z,102644.59
2023-04-20T16:42:34.543Z,102648.63
2023-04-20T16:45:01.613Z,102652.38
2023-04-20T16:47:28.297Z,102643.78
2023-04-20T16:49:55.040Z,102645.91
2023-04-20T16:52:21.768Z,102638.97
2023-04-20T16:54:48.614Z,102635.31
2023-04-20T16:57:15.642Z,102640.78
2023-04-20T16:59:44.638Z,102645.22
2023-04-20T17:02:12.621Z,102635.38
2023-04-20T17:04:39.696Z,102643.41
2023-04-20T17:07:06.424Z,102635.47
2023-04-20T17:09:33.263Z,102640.03
2023-04-20T17:12:00.145Z,102642.94
2023-04-20T17:14:27.256Z,102633.44
2023-04-20T17:16:55.007Z,102636.38
2023-04-20T17:19:22.047Z,102639.97
2023-04-20T17:21:49.095Z,102640.19
2023-04-20T17:24:16.169Z,102632.28
2023-04-20T17:26:43.041Z,102633.16
2023-04-20T17:29:09.868Z,102624.19
2023-04-20T17:31:36.660Z,102626.25
2023-04-20T17:34:03.498Z,102620.13
2023-04-20T17:36:30.194Z,102616.59
2023-04-20T17:38:56.850Z,102619.25
2023-04-20T17:41:23.512Z,102607.69
2023-04-20T17:43:51.469Z,102605.91
2023-04-20T17:46:18.668Z,102607.75
2023-04-20T17:48:45.623Z,102609.69
2023-04-20T17:51:15.520Z,102607.19
2023-04-20T17:53:42.408Z,102616.22
2023-04-20T17:56:09.343Z,102606.53
2023-04-20T17:58:36.018Z,102606.53
2023-04-20T18:01:03.234Z,102598.69
2023-04-20T18:03:30.243Z,102604.16
2023-04-20T18:05:57.024Z,102595.47
2023-04-20T18:08:23.765Z,102594.00
2023-04-20T18:10:50.532Z,102604.03
2023-04-20T18:13:17.220Z,102606.06
2023-04-20T18:15:44.040Z,102605.53
2023-04-20T18:18:10.826Z,102600.41
2023-04-20T18:20:37.554Z,102599.91
2023-04-20T18:23:04.519Z,102607.31
2023-04-20T18:25:31.434Z,102603.16
2023-04-20T18:27:58.093Z,102604.31
2023-04-20T18:30:25.231Z,102600.13
2023-04-20T18:32:51.948Z,102596.81
2023-04-20T18:35:19.470Z,102601.38
2023-04-20T18:37:46.581Z,102596.19
2023-04-20T18:40:15.958Z,102597.28
2023-04-20T18:42:43.028Z,102599.19
2023-04-20T18:45:10.097Z,102602.97
2023-04-20T18:47:36.807Z,102609.31
2023-04-20T18:50:03.721Z,102601.56
2023-04-20T18:52:34.186Z,102590.94
2023-04-20T18:55:01.927Z,102590.16
2023-04-20T18:57:29.148Z,102591.03
2023-04-20T18:59:56.539Z,102591.19
2023-04-20T19:02:23.691Z,102592.25
2023-04-20T19:04:53.261Z,102596.91
2023-04-20T19:07:20.684Z,102584.63
2023-04-20T19:09:47.364Z,102596.31
2023-04-20T19:12:14.148Z,102597.41
2023-04-20T19:14:41.068Z,102595.78
2023-04-20T19:17:08.203Z,102599.50
2023-04-20T19:19:35.060Z,102601.41
2023-04-20T19:22:03.824Z,102597.94
2023-04-20T19:24:32.182Z,102600.66
2023-04-20T19:26:59.284Z,102599.88
2023-04-20T19:29:26.080Z,102594.75
2023-04-20T19:31:52.883Z,102598.50
2023-04-20T19:34:19.673Z,102598.66
2023-04-20T19:36:46.730Z,102601.50
2023-04-20T19:39:13.893Z,102605.25
2023-04-20T19:41:40.610Z,102608.13
2023-04-20T19:44:09.947Z,102602.25
2023-04-20T19:46:38.708Z,102600.72
2023-04-20T19:49:05.939Z,102601.78
2023-04-20T19:51:33.472Z,102601.06
2023-04-20T19:54:01.252Z,102592.25
2023-04-20T19:56:28.177Z,102595.81
2023-04-20T19:58:54.887Z,102594.13
2023-04-20T20:01:21.715Z,102600.44
2023-04-20T20:03:48.684Z,102593.44
2023-04-20T20:06:16.468Z,102597.09
2023-04-20T20:08:43.213Z,102600.69
2023-04-20T20:11:09.966Z,102599.06
2023-04-20T20:13:36.833Z,102603.63
2023-04-20T20:16:03.871Z,102602.88
2023-04-20T20:18:31.182Z,102603.91
2023-04-20T20:20:57.910Z,102597.78
2023-04-20T20:23:24.576Z,102604.09
2023-04-20T20:25:51.997Z,102605.91
2023-04-20T20:28:18.762Z,102600.69
2023-04-20T20:30:45.854Z,102596.31
2023-04-20T20:33:13.001Z,102593.66
2023-04-20T20:35:39.990Z,102598.06
2023-04-20T20:38:07.954Z,102599.88
2023-04-20T20:40:35.619Z,102594.66
2023-04-20T20:43:02.715Z,102596.53
2023-04-20T20:45:30.494Z,102598.28
2023-04-20T20:47:58.077Z,102595.63
2023-04-20T20:50:26.463Z,102592.13
2023-04-20T20:52:53.198Z,102593.09
2023-04-20T20:55:19.969Z,102595.84
2023-04-20T20:57:46.761Z,102598.56
2023-04-20T21:00:14.005Z,102595.16
2023-04-20T21:02:40.848Z,102591.69
2023-04-20T21:05:08.047Z,102595.28
2023-04-20T21:07:35.165Z,102601.50
2023-04-20T21:10:02.038Z,102594.41
2023-04-20T21:12:28.753Z,102591.72
2023-04-20T21:14:55.711Z,102583.78
2023-04-20T21:17:22.441Z,102589.13
2023-04-20T21:19:49.113Z,102589.19
2023-04-20T21:22:15.790Z,102587.47
2023-04-20T21:24:42.456Z,102583.13
2023-04-20T21:27:09.188Z,102584.06
2023-04-20T21:29:35.834Z,102590.38
2023-04-20T21:32:02.629Z,102585.22
2023-04-20T21:34:29.483Z,102594.16
2023-04-20T21:37:03.456Z,102582.75
2023-04-20T21:39:31.023Z,102583.66
2023-04-20T21:41:57.730Z,102576.59
2023-04-20T21:44:24.639Z,102580.13
2023-04-20T21:46:51.371Z,102586.28
2023-04-20T21:49:18.435Z,102587.13
2023-04-20T21:51:45.761Z,102581.81
2023-04-20T21:54:12.507Z,102573.00
2023-04-20T21:56:39.202Z,102573.03
2023-04-20T21:59:05.975Z,102575.69
2023-04-20T22:01:32.773Z,102573.91
2023-04-20T22:03:59.635Z,102575.69
2023-04-20T22:06:26.918Z,102573.03
2023-04-20T22:08:53.925Z,102571.25
2023-04-20T22:11:21.185Z,102583.63
2023-04-20T22:13:47.841Z,102573.88
2023-04-20T22:16:14.569Z,102566.81
2023-04-20T22:18:42.297Z,102565.91
2023-04-20T22:21:08.964Z,102560.63
2023-04-20T22:23:36.256Z,102557.13
2023-04-20T22:26:02.974Z,102556.28
2023-04-20T22:28:29.635Z,102548.31
2023-04-20T22:30:56.808Z,102547.50
2023-04-20T22:33:23.491Z,102547.50
2023-04-20T22:35:50.563Z,102553.72
2023-04-20T22:38:17.329Z,102546.66
2023-04-20T22:40:44.143Z,102547.56
2023-04-20T22:43:11.430Z,102551.09
2023-04-20T22:45:38.079Z,102541.38
2023-04-20T22:48:05.075Z,102536.97
2023-04-20T22:50:31.839Z,102537.00
2023-04-20T22:52:58.521Z,102541.44
2023-04-20T22:55:25.546Z,102538.84
2023-04-20T22:57:52.390Z,102537.09
2023-04-20T23:00:19.176Z,102533.56
2023-04-20T23:02:45.932Z,102532.66
2023-04-20T23:05:12.755Z,102543.25
2023-04-20T23:07:39.610Z,102539.75
2023-04-20T23:10:07.139Z,102531.81
2023-04-20T23:12:33.842Z,102539.72
2023-04-20T23:15:03.912Z,102533.56
2023-04-20T23:17:30.857Z,102529.16
2023-04-20T23:19:57.724Z,102528.25
2023-04-20T23:22:24.679Z,102527.34
2023-04-20T23:24:51.616Z,102528.22
2023-04-20T23:27:18.408Z,102517.63
2023-04-20T23:29:45.417Z,102515.88
2023-04-20T23:32:12.120Z,102522.03
2023-04-20T23:34:38.802Z,102522.88
2023-04-20T23:37:05.558Z,102525.53
2023-04-20T23:39:37.132Z,102523.78
2023-04-20T23:42:05.240Z,102512.34
2023-04-20T23:44:31.925Z,102512.34
2023-04-20T23:46:58.560Z,102503.53
2023-04-20T23:49:25.403Z,102509.69
2023-04-20T23:51:52.075Z,102508.84
2023-04-20T23:54:18.747Z,102506.19
2023-04-20T23:56:45.440Z,102512.34
2023-04-20T23:59:12.141Z,102503.50
